createdAt,value
2023-04-01T01:20:22.916Z,9.24
2023-04-01T01:40:10.706Z,9.24
2023-04-01T02:00:10.668Z,9.24
2023-04-01T02:20:10.646Z,9.24
2023-04-01T02:40:10.654Z,9.24
2023-04-01T03:00:10.350Z,9.24
2023-04-01T03:20:10.625Z,9.24
2023-04-01T04:00:10.582Z,9.24
2023-04-01T04:20:10.671Z,9.24
2023-04-01T04:40:10.553Z,9.24
2023-04-01T05:00:10.510Z,9.23
2023-04-01T06:00:10.478Z,9.23
2023-04-01T06:20:10.187Z,9.23
2023-04-01T06:40:10.445Z,9.23
2023-04-01T07:00:10.171Z,9.23
2023-04-01T07:20:10.399Z,9.23
2023-04-01T08:00:10.379Z,9.22
2023-04-01T08:20:10.374Z,9.22
2023-04-01T08:40:10.057Z,9.22
2023-04-01T09:00:10.315Z,9.22
2023-04-01T09:40:10.296Z,9.22
2023-04-01T10:00:09.662Z,9.22
2023-04-01T10:20:10.218Z,9.22
2023-04-01T10:40:10.238Z,9.22
2023-04-01T11:00:10.211Z,9.22
2023-04-01T11:20:10.197Z,9.22
2023-04-01T11:40:10.196Z,9.22
2023-04-01T12:00:10.149Z,9.22
2023-04-01T12:20:10.180Z,9.22
2023-04-01T12:40:10.132Z,9.22
2023-04-01T13:00:10.085Z,9.22
2023-04-01T13:20:10.073Z,9.22
2023-04-01T13:40:10.048Z,9.22
2023-04-01T14:00:10.049Z,9.23
2023-04-01T14:20:10.032Z,9.23
2023-04-01T14:40:09.995Z,9.23
2023-04-01T15:00:09.992Z,9.24
2023-04-01T15:20:09.986Z,9.24
2023-04-01T15:40:09.949Z,9.25
2023-04-01T16:00:09.943Z,9.26
2023-04-01T16:40:09.609Z,9.28
2023-04-01T17:00:09.861Z,9.28
2023-04-01T17:20:09.849Z,9.29
2023-04-01T17:40:09.851Z,9.3
2023-04-01T18:00:09.811Z,9.31
2023-04-01T18:20:09.811Z,9.31
2023-04-01T18:40:09.770Z,9.32
2023-04-01T19:00:09.775Z,9.32
2023-04-01T19:20:09.782Z,9.32
2023-04-01T19:40:09.700Z,9.32
2023-04-01T20:00:09.712Z,9.32
2023-04-01T20:20:09.722Z,9.33
2023-04-01T20:40:09.680Z,9.33
2023-04-01T21:00:09.661Z,9.33
2023-04-01T21:20:09.652Z,9.33
2023-04-01T21:40:09.658Z,9.33
2023-04-01T22:00:09.623Z,9.33
2023-04-01T22:20:09.608Z,9.33
2023-04-01T22:40:09.609Z,9.34
2023-04-01T23:00:09.667Z,9.33
2023-04-01T23:20:09.590Z,9.33
2023-04-01T23:40:09.604Z,9.33
